Pagina principale
METAR-TAF:

METAR-TAF

Aeroporti :

Berbérati, Repubblica Centrafricana

latitudine: 04-15N, longitudine: 015-48E, altezza: 582 m

Osservazione

Il bollettino è stato emesso 17 ore e 21 minuti fa, alle 10:00 UTC
Vento 10 kt da nord
Temperature 33°C
Umidità 32%
Pressione 1013 hPa
Visibilità 10 km o più
nessuna nube inferiore a 1500 m e nessun cumulonembo

METAR: FEFT 231000Z 36010KT CAVOK 33/14 Q1013

Ora: 04:21 (03:21 UTC)


TAF: mancante

Osservazioni e previsioni meteorologiche di più di 4000 aeroporti (messaggi METAR e TAF).

Le stazioni disponibili sono rappresentate dai dischi gialli e rossi sulla carta.

Puntare il mouse per vedere il nome della stazione.

Clicca sopra per visualizzare le osservazioni e previsioni meteorologiche.

Per cambiare la mappa : fare clic sui pulsanti verdi con una croce nera per ingrandire, il pulsante verde con un trattino per diminuire, o sulla freccia verde per le mappe adiacenti.


METAR-TAF: